Time;durP1;ratioP1;P1;durP2;ratioP2;P2;SDS_P1;SDS_P2;PMS_P1;PMS_P2;Temp;Humidity;BMP_temperature;BMP_pressure;BME280_temperature;BME280_humidity;BME280_pressure;Samples;Min_cycle;Max_cycle;Signal;HPM_P1;HPM_P2
2021/05/14 00:00:45;;;;;;;1.80;1.43;;;9.60;99.90;;;;;;5054595;28;20474;-50
2021/05/14 00:03:12;;;;;;;3.60;1.63;;;9.50;99.90;;;;;;5054204;28;20444;-50
2021/05/14 00:05:38;;;;;;;2.20;1.93;;;9.50;99.90;;;;;;5054208;28;20486;-51
2021/05/14 00:08:06;;;;;;;1.73;1.63;;;9.30;99.90;;;;;;5054409;28;20451;-51
2021/05/14 00:10:35;;;;;;;4.83;2.23;;;9.20;99.90;;;;;;5054234;28;20468;-51
2021/05/14 00:13:02;;;;;;;2.57;2.07;;;9.20;99.90;;;;;;5054534;28;20878;-50
2021/05/14 00:15:28;;;;;;;3.53;2.30;;;9.10;99.90;;;;;;5054113;28;20938;-50
2021/05/14 00:17:56;;;;;;;2.83;2.07;;;9.10;99.90;;;;;;5054447;28;20451;-50
2021/05/14 00:20:22;;;;;;;2.30;2.10;;;8.90;99.90;;;;;;5054176;28;20467;-51
2021/05/14 00:22:49;;;;;;;3.83;2.20;;;8.90;99.90;;;;;;5053757;28;22434;-50
2021/05/14 00:25:15;;;;;;;2.90;2.60;;;8.90;99.90;;;;;;5053975;28;20490;-50
2021/05/14 00:27:42;;;;;;;2.37;2.17;;;8.90;99.90;;;;;;5054470;28;20498;-50
2021/05/14 00:30:10;;;;;;;3.20;2.47;;;8.90;99.90;;;;;;5053637;28;21180;-51
2021/05/14 00:32:36;;;;;;;3.00;2.47;;;8.90;99.90;;;;;;5054252;28;20855;-50
2021/05/14 00:35:05;;;;;;;4.20;2.50;;;8.90;99.90;;;;;;5053089;28;20451;-50
2021/05/14 00:37:31;;;;;;;5.30;3.07;;;8.90;99.90;;;;;;5053609;28;20497;-51
2021/05/14 00:39:58;;;;;;;2.30;2.10;;;9.00;99.90;;;;;;5053949;28;20521;-50
2021/05/14 00:42:24;;;;;;;2.80;2.40;;;9.00;99.90;;;;;;5053850;28;20459;-51
2021/05/14 00:44:52;;;;;;;3.27;2.50;;;9.10;99.90;;;;;;5052571;28;20484;-51
2021/05/14 00:47:20;;;;;;;2.63;2.13;;;9.00;99.90;;;;;;5053815;28;20451;-51
2021/05/14 00:49:47;;;;;;;2.60;2.40;;;9.10;99.90;;;;;;5053335;28;20517;-51
2021/05/14 00:52:17;;;;;;;2.73;2.50;;;9.00;99.90;;;;;;5045677;28;20533;-51
2021/05/14 00:54:44;;;;;;;2.20;2.00;;;9.00;99.90;;;;;;5052369;28;20455;-51
2021/05/14 00:57:12;;;;;;;2.00;1.87;;;9.00;99.90;;;;;;5053238;28;20451;-51
2021/05/14 00:59:39;;;;;;;2.77;2.20;;;9.10;99.90;;;;;;5053936;28;20456;-50
2021/05/14 01:02:06;;;;;;;2.10;1.90;;;9.00;99.90;;;;;;5052505;28;20490;-51
2021/05/14 01:04:33;;;;;;;2.60;2.30;;;9.00;99.90;;;;;;5053104;28;20859;-51
2021/05/14 01:07:00;;;;;;;2.33;2.13;;;9.00;99.90;;;;;;5052624;28;20482;-50
2021/05/14 01:09:27;;;;;;;3.70;2.60;;;8.90;99.90;;;;;;5053720;28;20451;-51
2021/05/14 01:11:54;;;;;;;6.63;2.87;;;8.80;99.90;;;;;;5052171;28;20473;-50
2021/05/14 01:14:20;;;;;;;3.00;2.30;;;8.80;99.90;;;;;;5053803;28;20462;-51
2021/05/14 01:16:47;;;;;;;2.50;2.30;;;8.80;99.90;;;;;;5052934;28;20451;-50
2021/05/14 01:19:14;;;;;;;3.70;2.63;;;8.80;99.90;;;;;;5053636;28;20446;-50
2021/05/14 01:21:41;;;;;;;2.87;2.60;;;8.80;99.90;;;;;;5053143;28;21004;-50
2021/05/14 01:24:09;;;;;;;4.30;2.77;;;8.80;99.90;;;;;;5053463;28;20452;-50
2021/05/14 01:26:36;;;;;;;2.50;2.30;;;8.90;99.90;;;;;;5052839;28;20479;-51
2021/05/14 01:29:06;;;;;;;2.73;2.53;;;8.80;99.90;;;;;;5053349;28;20444;-50
2021/05/14 01:31:33;;;;;;;2.50;2.30;;;8.80;99.90;;;;;;5074004;23;20533;-55
2021/05/14 01:34:00;;;;;;;2.40;2.20;;;8.70;99.90;;;;;;5052716;28;20976;-55
2021/05/14 01:36:27;;;;;;;4.50;2.80;;;8.70;99.90;;;;;;5052373;28;20448;-55
2021/05/14 01:38:54;;;;;;;2.50;2.30;;;8.50;99.90;;;;;;5052626;28;20444;-55
2021/05/14 01:41:21;;;;;;;2.77;2.57;;;8.60;99.90;;;;;;5052907;28;20471;-55
2021/05/14 01:43:47;;;;;;;3.97;2.60;;;8.60;99.90;;;;;;5045865;28;20472;-55
2021/05/14 01:46:14;;;;;;;3.60;2.60;;;8.60;99.90;;;;;;5033299;28;20484;-55
2021/05/14 01:48:40;;;;;;;2.60;2.40;;;8.60;99.90;;;;;;5033115;28;20487;-55
2021/05/14 01:51:12;;;;;;;2.70;2.50;;;8.60;99.90;;;;;;5042091;28;21044;-55
2021/05/14 01:53:39;;;;;;;3.30;2.73;;;8.60;99.90;;;;;;5033221;28;20510;-55
2021/05/14 01:56:06;;;;;;;2.90;2.60;;;8.50;99.90;;;;;;5049024;28;20458;-55
2021/05/14 01:58:33;;;;;;;2.43;2.23;;;8.50;99.90;;;;;;5051852;28;20838;-55
2021/05/14 02:00:59;;;;;;;3.17;2.23;;;8.50;99.90;;;;;;5032933;28;20467;-55
2021/05/14 02:03:26;;;;;;;4.70;2.93;;;8.50;99.90;;;;;;5041121;28;20447;-55
2021/05/14 02:05:52;;;;;;;2.67;2.47;;;8.40;99.90;;;;;;5032052;28;20860;-55
2021/05/14 02:08:19;;;;;;;2.87;2.60;;;8.50;99.90;;;;;;5032950;28;20456;-55
2021/05/14 02:10:45;;;;;;;2.67;2.47;;;8.30;99.90;;;;;;5034794;28;20480;-55
2021/05/14 02:13:13;;;;;;;3.63;2.77;;;8.10;99.90;;;;;;5052733;28;20451;-55
2021/05/14 02:15:40;;;;;;;4.43;3.00;;;8.10;99.90;;;;;;5052320;28;20485;-55
2021/05/14 02:18:07;;;;;;;3.30;3.00;;;8.20;99.90;;;;;;5051786;28;20493;-55
2021/05/14 02:20:33;;;;;;;6.80;2.60;;;8.20;99.90;;;;;;5032361;28;20448;-54
2021/05/14 02:23:00;;;;;;;6.37;2.80;;;8.20;99.90;;;;;;5032831;28;20455;-54
2021/05/14 02:25:27;;;;;;;3.50;2.77;;;8.30;99.90;;;;;;5033318;28;20483;-55
2021/05/14 02:27:53;;;;;;;3.70;3.07;;;8.30;99.90;;;;;;5039463;28;20446;-55
2021/05/14 02:30:22;;;;;;;5.00;2.63;;;8.30;99.90;;;;;;5051868;28;20580;-55
2021/05/14 02:32:48;;;;;;;2.93;2.63;;;8.40;99.90;;;;;;5051849;28;20454;-55
2021/05/14 02:35:15;;;;;;;3.10;2.73;;;8.40;99.90;;;;;;5051989;28;20874;-55
2021/05/14 02:37:42;;;;;;;2.80;2.60;;;8.50;99.90;;;;;;5050338;28;20454;-54
2021/05/14 02:40:10;;;;;;;3.07;2.77;;;8.40;99.90;;;;;;5052116;28;20451;-54
2021/05/14 02:42:37;;;;;;;3.60;3.00;;;8.40;99.90;;;;;;5050370;28;20527;-55
2021/05/14 02:45:05;;;;;;;3.30;2.50;;;8.50;99.90;;;;;;5051530;28;20537;-55
2021/05/14 02:47:33;;;;;;;2.60;2.30;;;8.50;99.90;;;;;;5051289;28;20463;-55
2021/05/14 02:49:59;;;;;;;3.53;2.73;;;8.40;99.90;;;;;;5051924;28;20451;-54
2021/05/14 02:52:25;;;;;;;4.73;2.73;;;8.20;99.90;;;;;;5051578;28;20475;-55
2021/05/14 02:54:52;;;;;;;2.50;2.30;;;8.20;99.90;;;;;;5050759;28;20452;-55
2021/05/14 02:57:18;;;;;;;2.73;2.50;;;8.10;99.90;;;;;;5051994;28;20455;-55
2021/05/14 02:59:45;;;;;;;2.80;2.60;;;8.20;99.90;;;;;;5051621;28;20455;-55
2021/05/14 03:02:11;;;;;;;2.87;2.50;;;8.30;99.90;;;;;;5042406;28;20482;-55
2021/05/14 03:04:39;;;;;;;3.93;2.60;;;8.30;99.90;;;;;;5036272;28;20467;-55
2021/05/14 03:07:05;;;;;;;3.70;2.80;;;8.30;99.90;;;;;;5042404;28;20458;-55
2021/05/14 03:09:32;;;;;;;3.07;2.70;;;8.30;99.90;;;;;;5051930;28;20448;-54
2021/05/14 03:11:58;;;;;;;3.10;2.00;;;8.30;99.90;;;;;;5033679;28;20475;-55
2021/05/14 03:14:25;;;;;;;4.60;2.30;;;8.30;99.90;;;;;;5031995;28;20455;-55
2021/05/14 03:16:51;;;;;;;2.83;2.40;;;8.30;99.90;;;;;;5048759;28;20573;-55
2021/05/14 03:19:18;;;;;;;2.70;2.37;;;8.30;99.90;;;;;;5051029;28;20502;-55
2021/05/14 03:21:45;;;;;;;4.03;2.30;;;8.30;99.90;;;;;;5051368;28;20474;-54
2021/05/14 03:24:12;;;;;;;3.03;2.60;;;8.30;99.90;;;;;;5051694;28;20520;-55
2021/05/14 03:26:38;;;;;;;3.63;2.40;;;8.30;99.90;;;;;;5049598;28;20486;-55
2021/05/14 03:29:04;;;;;;;6.60;2.50;;;8.40;99.90;;;;;;5051384;28;21025;-55
2021/05/14 03:31:31;;;;;;;17.50;3.03;;;8.30;99.90;;;;;;5037435;28;21008;-55
2021/05/14 03:33:57;;;;;;;3.57;2.43;;;8.30;99.90;;;;;;5048835;28;20448;-55
2021/05/14 03:36:24;;;;;;;5.63;2.53;;;8.30;99.90;;;;;;5050901;28;20500;-55
2021/05/14 03:38:51;;;;;;;3.13;2.73;;;8.10;99.90;;;;;;5051137;28;20456;-55
2021/05/14 03:41:30;;;;;;;3.20;2.70;;;8.00;99.90;;;;;;5051330;28;20475;-55
2021/05/14 03:43:57;;;;;;;2.70;2.50;;;8.00;99.90;;;;;;5050557;28;20455;-54
2021/05/14 03:46:26;;;;;;;2.77;2.57;;;8.00;99.90;;;;;;5051252;28;20486;-55
2021/05/14 03:48:53;;;;;;;3.00;2.80;;;7.90;99.90;;;;;;5039826;28;20456;-55
2021/05/14 03:51:19;;;;;;;3.50;2.70;;;7.90;99.90;;;;;;5045473;28;20471;-55
2021/05/14 03:53:46;;;;;;;3.73;2.70;;;7.90;99.90;;;;;;5049064;28;20877;-55
2021/05/14 03:56:13;;;;;;;6.20;2.90;;;7.80;99.90;;;;;;5031077;28;20958;-54
2021/05/14 03:58:39;;;;;;;4.90;2.73;;;7.80;99.90;;;;;;5048006;28;20458;-54
2021/05/14 04:01:07;;;;;;;4.37;2.73;;;7.80;99.90;;;;;;5031464;28;20518;-55
2021/05/14 04:03:33;;;;;;;2.83;2.60;;;7.70;99.90;;;;;;5044461;28;20455;-55
2021/05/14 04:06:00;;;;;;;2.70;2.50;;;7.80;99.90;;;;;;5048953;28;20993;-55
2021/05/14 04:08:26;;;;;;;2.60;2.40;;;7.90;99.90;;;;;;5050563;28;20462;-55
2021/05/14 04:11:18;;;;;;;2.60;2.40;;;7.90;99.90;;;;;;5050523;28;20477;-54
2021/05/14 04:16:30;;;;;;;8.90;4.90;;;8.00;99.90;;;;;;5050897;28;20423;-54
2021/05/14 04:18:56;;;;;;;5.77;3.30;;;8.00;99.90;;;;;;5050717;28;20953;-54
2021/05/14 04:21:23;;;;;;;4.33;3.30;;;7.90;99.90;;;;;;5036983;28;20848;-55
2021/05/14 04:23:49;;;;;;;4.10;3.10;;;8.00;99.90;;;;;;5034283;28;20898;-55
2021/05/14 04:26:16;;;;;;;3.03;2.80;;;7.90;99.90;;;;;;5031756;28;21010;-55
2021/05/14 04:28:42;;;;;;;2.97;2.53;;;7.80;99.90;;;;;;5035895;28;20463;-54
2021/05/14 04:31:09;;;;;;;5.60;2.50;;;7.70;99.90;;;;;;5054427;28;20487;-55
2021/05/14 04:33:36;;;;;;;2.37;2.17;;;7.60;99.90;;;;;;5054452;28;20513;-54
2021/05/14 04:36:03;;;;;;;2.77;2.30;;;7.70;99.90;;;;;;5049002;28;20440;-54
2021/05/14 04:38:29;;;;;;;2.43;2.23;;;7.90;99.90;;;;;;5054515;28;20447;-54
2021/05/14 04:40:56;;;;;;;3.77;2.03;;;8.10;99.90;;;;;;5054243;28;20844;-54
2021/05/14 04:43:22;;;;;;;2.30;2.10;;;8.50;99.90;;;;;;5048742;28;20456;-54
2021/05/14 04:45:49;;;;;;;1.90;1.80;;;9.00;99.90;;;;;;5044461;28;20484;-54
2021/05/14 04:48:16;;;;;;;4.33;2.20;;;9.60;99.90;;;;;;5052479;28;20463;-54
2021/05/14 04:50:43;;;;;;;1.83;1.70;;;10.10;99.90;;;;;;5054027;28;20468;-54
2021/05/14 04:53:13;;;;;;;2.07;1.87;;;10.60;99.90;;;;;;5055346;28;20486;-55
2021/05/14 04:55:40;;;;;;;2.10;2.00;;;11.20;99.90;;;;;;5054544;28;20452;-55
2021/05/14 04:58:06;;;;;;;1.80;1.70;;;11.40;99.90;;;;;;5054183;28;20509;-55
2021/05/14 05:00:33;;;;;;;2.83;1.83;;;11.50;99.90;;;;;;5053455;28;20451;-55
2021/05/14 05:03:01;;;;;;;2.10;1.90;;;11.60;99.90;;;;;;5049881;28;20950;-55
2021/05/14 05:05:28;;;;;;;2.43;1.80;;;11.60;99.90;;;;;;5033805;28;20488;-55
2021/05/14 05:07:55;;;;;;;2.30;2.10;;;11.70;99.90;;;;;;5042335;28;20456;-55
2021/05/14 05:10:23;;;;;;;2.30;2.03;;;12.10;99.90;;;;;;5050022;28;20458;-55
2021/05/14 05:12:50;;;;;;;3.00;2.40;;;12.40;99.90;;;;;;5042759;28;20454;-54
2021/05/14 05:15:17;;;;;;;2.20;2.00;;;12.60;99.90;;;;;;5044706;28;20443;-54
2021/05/14 05:17:44;;;;;;;2.53;2.03;;;12.70;99.90;;;;;;5053616;28;20452;-55
2021/05/14 05:20:12;;;;;;;3.20;1.80;;;12.40;99.90;;;;;;5035821;28;20526;-53
2021/05/14 05:22:39;;;;;;;3.80;1.87;;;12.40;99.90;;;;;;5049350;28;20529;-54
2021/05/14 05:25:07;;;;;;;2.13;1.93;;;13.30;99.90;;;;;;5053334;28;20491;-55
2021/05/14 05:27:33;;;;;;;1.57;1.47;;;14.50;99.90;;;;;;5053583;28;20452;-54
2021/05/14 05:29:59;;;;;;;1.90;1.80;;;15.60;99.90;;;;;;5053362;28;20522;-55
2021/05/14 05:32:26;;;;;;;2.33;2.10;;;16.40;99.90;;;;;;5052824;28;20533;-55
2021/05/14 05:34:52;;;;;;;5.93;2.50;;;16.70;99.90;;;;;;5044342;28;20843;-54
2021/05/14 05:37:21;;;;;;;4.07;2.77;;;17.40;99.90;;;;;;5034436;28;20510;-54
2021/05/14 05:39:48;;;;;;;2.70;2.33;;;17.30;99.90;;;;;;5053232;28;20463;-54
2021/05/14 05:42:15;;;;;;;2.53;1.90;;;17.50;99.90;;;;;;5052644;28;20476;-55
2021/05/14 05:44:44;;;;;;;2.03;1.93;;;18.00;99.90;;;;;;5052715;28;20456;-54
2021/05/14 05:47:11;;;;;;;1.70;1.47;;;17.50;99.90;;;;;;5053006;28;20455;-54
2021/05/14 05:49:41;;;;;;;1.87;1.77;;;17.30;99.90;;;;;;5052934;28;20455;-54
2021/05/14 05:52:07;;;;;;;2.80;1.73;;;17.90;99.90;;;;;;5052746;28;20988;-55
2021/05/14 05:54:35;;;;;;;2.10;1.60;;;17.50;99.90;;;;;;5051246;28;20866;-54
2021/05/14 05:57:02;;;;;;;3.30;2.00;;;17.20;99.90;;;;;;5042338;28;20449;-55
2021/05/14 05:59:29;;;;;;;2.40;1.50;;;17.50;99.90;;;;;;5042753;28;20452;-55
2021/05/14 06:01:55;;;;;;;1.70;1.60;;;18.10;99.90;;;;;;5044209;28;20467;-55
2021/05/14 06:04:22;;;;;;;2.07;1.53;;;18.00;99.90;;;;;;5051576;28;20862;-55
2021/05/14 06:06:48;;;;;;;2.47;1.60;;;18.50;99.90;;;;;;5050728;28;20484;-56
2021/05/14 06:09:15;;;;;;;2.13;1.40;;;18.80;99.90;;;;;;5052532;28;20806;-56
2021/05/14 06:11:41;;;;;;;1.10;1.00;;;19.30;99.90;;;;;;5052119;28;20867;-56
2021/05/14 06:14:09;;;;;;;1.27;1.10;;;19.70;99.90;;;;;;5047755;28;20961;-55
2021/05/14 06:16:35;;;;;;;3.23;1.27;;;19.60;99.90;;;;;;5037225;28;20472;-55
2021/05/14 06:19:07;;;;;;;1.50;1.30;;;19.80;99.90;;;;;;5037455;28;20452;-55
2021/05/14 06:21:33;;;;;;;1.47;1.10;;;19.10;99.90;;;;;;5032405;28;21005;-56
2021/05/14 06:23:59;;;;;;;1.40;1.30;;;18.10;99.90;;;;;;5032363;28;20452;-56
2021/05/14 06:26:26;;;;;;;2.90;1.27;;;16.90;99.90;;;;;;5037051;28;20479;-55
2021/05/14 06:28:53;;;;;;;1.37;1.20;;;16.50;99.90;;;;;;5040782;28;20479;-54
2021/05/14 06:31:20;;;;;;;3.70;1.47;;;16.20;99.90;;;;;;5036243;28;20515;-55
2021/05/14 06:33:46;;;;;;;1.80;1.47;;;16.80;99.90;;;;;;5038199;28;20451;-56
2021/05/14 06:36:13;;;;;;;1.90;1.20;;;17.50;99.90;;;;;;5050494;28;20451;-56
2021/05/14 06:38:39;;;;;;;1.40;1.30;;;18.00;99.90;;;;;;5051757;28;20444;-56
2021/05/14 06:41:06;;;;;;;1.47;1.30;;;17.90;99.90;;;;;;5044148;28;20529;-55
2021/05/14 06:43:32;;;;;;;1.63;1.20;;;18.00;99.90;;;;;;5050402;28;20529;-55
2021/05/14 06:46:01;;;;;;;2.27;1.20;;;18.30;99.90;;;;;;5050703;28;20479;-55
2021/05/14 06:48:29;;;;;;;1.93;1.77;;;18.50;99.90;;;;;;5039537;28;20452;-55
2021/05/14 06:50:56;;;;;;;1.73;1.10;;;18.80;99.90;;;;;;5036061;28;21020;-56
2021/05/14 06:53:22;;;;;;;1.30;1.00;;;19.40;99.90;;;;;;5031002;28;20539;-56
2021/05/14 06:55:49;;;;;;;1.30;1.20;;;19.50;99.90;;;;;;5042436;28;20522;-55
2021/05/14 06:58:15;;;;;;;1.50;1.40;;;19.60;99.90;;;;;;5031996;28;20459;-55
2021/05/14 07:00:41;;;;;;;1.63;1.40;;;19.90;99.90;;;;;;5032773;28;20468;-55
2021/05/14 07:03:08;;;;;;;1.33;1.23;;;19.80;99.90;;;;;;5042256;28;20451;-56
2021/05/14 07:05:36;;;;;;;2.57;1.30;;;20.50;99.90;;;;;;5037783;28;20484;-56
2021/05/14 07:08:02;;;;;;;1.50;1.40;;;20.40;99.90;;;;;;5032705;28;20454;-55
2021/05/14 07:10:29;;;;;;;1.77;1.40;;;20.30;99.90;;;;;;5031770;28;20452;-56
2021/05/14 07:12:56;;;;;;;1.50;1.40;;;20.30;99.90;;;;;;5032386;28;20452;-56
2021/05/14 07:15:24;;;;;;;1.50;1.40;;;20.40;99.90;;;;;;5044275;28;20440;-56
2021/05/14 07:17:52;;;;;;;1.30;1.20;;;20.80;99.90;;;;;;5047724;28;20481;-56
2021/05/14 07:20:20;;;;;;;2.10;1.90;;;21.10;99.90;;;;;;5051425;28;20454;-56
2021/05/14 07:22:47;;;;;;;2.00;1.80;;;20.60;99.90;;;;;;5051700;28;20452;-56
2021/05/14 07:25:14;;;;;;;2.83;1.60;;;21.20;99.90;;;;;;5051417;28;20483;-56
2021/05/14 07:27:41;;;;;;;2.60;1.33;;;21.50;99.90;;;;;;5051414;28;20546;-56
2021/05/14 07:30:09;;;;;;;2.30;1.43;;;21.60;99.90;;;;;;5051424;28;20504;-56
2021/05/14 07:32:36;;;;;;;2.40;1.50;;;21.80;99.90;;;;;;5101286;22;20517;-52
2021/05/14 07:35:06;;;;;;;1.73;1.63;;;21.90;99.90;;;;;;5090656;28;20445;-51
2021/05/14 07:37:33;;;;;;;1.70;1.60;;;22.10;99.90;;;;;;5091783;28;20456;-51
2021/05/14 07:40:04;;;;;;;1.40;1.30;;;22.20;98.60;;;;;;5091555;28;20467;-51
2021/05/14 07:42:31;;;;;;;2.30;1.47;;;22.50;98.80;;;;;;5106210;28;20473;-52
2021/05/14 07:44:57;;;;;;;1.77;1.67;;;21.90;99.70;;;;;;5111475;28;20445;-54
2021/05/14 07:47:24;;;;;;;1.40;1.30;;;22.50;96.70;;;;;;5110832;28;20827;-52
2021/05/14 07:49:51;;;;;;;2.80;1.50;;;22.90;96.10;;;;;;5112098;28;20444;-52
2021/05/14 07:52:17;;;;;;;1.93;1.60;;;22.30;97.00;;;;;;5112028;28;20487;-52
2021/05/14 07:54:44;;;;;;;2.70;1.67;;;22.50;96.00;;;;;;5111587;28;20831;-52
2021/05/14 07:57:11;;;;;;;1.17;1.07;;;22.50;97.10;;;;;;5111754;28;20502;-53
2021/05/14 07:59:37;;;;;;;1.33;1.23;;;23.60;95.70;;;;;;5111742;28;20445;-53
2021/05/14 08:02:04;;;;;;;1.40;1.30;;;24.10;95.50;;;;;;5111050;28;20491;-52
2021/05/14 08:04:31;;;;;;;1.30;1.20;;;23.80;93.30;;;;;;5112053;28;20445;-53
2021/05/14 08:06:57;;;;;;;2.00;1.10;;;23.70;94.50;;;;;;5099531;28;20485;-53
2021/05/14 08:09:24;;;;;;;1.90;1.23;;;23.60;95.00;;;;;;5099957;28;20465;-53
2021/05/14 08:11:51;;;;;;;3.40;1.33;;;23.70;94.30;;;;;;5106490;28;20470;-53
2021/05/14 08:14:20;;;;;;;3.60;1.50;;;22.40;93.00;;;;;;5095053;28;20445;-52
2021/05/14 08:16:47;;;;;;;1.70;1.60;;;22.50;95.20;;;;;;5108863;28;20519;-53
2021/05/14 08:19:13;;;;;;;1.10;1.10;;;23.00;95.90;;;;;;5112134;28;20445;-53
2021/05/14 08:21:40;;;;;;;1.37;1.27;;;22.80;94.60;;;;;;5105235;28;20465;-52
2021/05/14 08:24:09;;;;;;;1.47;1.20;;;23.30;93.90;;;;;;5110701;28;20448;-53
2021/05/14 08:26:36;;;;;;;2.60;1.17;;;23.70;93.10;;;;;;5106243;28;21025;-53
2021/05/14 08:29:02;;;;;;;2.40;1.40;;;24.20;92.30;;;;;;5110998;28;20831;-53
2021/05/14 08:31:32;;;;;;;3.47;1.37;;;23.20;93.90;;;;;;5112677;28;20484;-52
2021/05/14 08:33:59;;;;;;;1.40;1.30;;;23.10;93.10;;;;;;5094794;28;20450;-52
2021/05/14 08:36:25;;;;;;;1.63;1.53;;;22.90;92.50;;;;;;5094600;28;20446;-52
2021/05/14 08:38:52;;;;;;;1.60;1.50;;;22.60;92.70;;;;;;5094704;28;20939;-52
2021/05/14 08:41:20;;;;;;;1.50;1.40;;;22.80;93.00;;;;;;5094701;28;20461;-53
2021/05/14 08:43:47;;;;;;;2.07;1.60;;;23.50;93.20;;;;;;5098160;28;20531;-53
2021/05/14 08:46:15;;;;;;;1.43;1.33;;;23.30;94.50;;;;;;5114744;28;20472;-53
2021/05/14 08:48:42;;;;;;;1.70;1.60;;;23.00;94.70;;;;;;5114816;28;20460;-54
2021/05/14 08:51:10;;;;;;;1.60;1.50;;;23.30;92.60;;;;;;5114938;28;20464;-53
2021/05/14 08:53:38;;;;;;;1.63;1.53;;;23.90;93.00;;;;;;5103304;28;20508;-53
2021/05/14 08:56:05;;;;;;;1.50;1.40;;;24.40;92.20;;;;;;5100437;28;20437;-54
2021/05/14 08:58:32;;;;;;;1.43;1.23;;;22.80;92.80;;;;;;5114473;28;20463;-53
2021/05/14 09:00:58;;;;;;;1.77;1.40;;;22.90;93.00;;;;;;5114452;28;20445;-53
2021/05/14 09:03:25;;;;;;;1.40;1.30;;;23.00;92.10;;;;;;5112716;28;20445;-53
2021/05/14 09:05:53;;;;;;;1.20;1.10;;;23.30;91.00;;;;;;5094025;28;20482;-53
2021/05/14 09:08:27;;;;;;;2.03;1.83;;;23.30;89.00;;;;;;5094281;28;20449;-53
2021/05/14 09:10:54;;;;;;;1.70;1.60;;;24.20;90.10;;;;;;5104730;28;20457;-54
2021/05/14 09:13:21;;;;;;;1.90;1.80;;;23.60;92.50;;;;;;5114413;28;20946;-53
2021/05/14 09:15:48;;;;;;;1.67;1.57;;;21.70;96.10;;;;;;5113091;28;20456;-53
2021/05/14 09:18:17;;;;;;;1.80;1.70;;;20.80;96.20;;;;;;5114315;28;20451;-53
2021/05/14 09:20:47;;;;;;;4.10;1.47;;;21.50;93.80;;;;;;5114539;28;20453;-53
2021/05/14 09:23:29;;;;;;;1.60;1.43;;;21.00;95.30;;;;;;5114033;28;20497;-53
2021/05/14 09:25:56;;;;;;;1.50;1.40;;;21.60;96.50;;;;;;5108212;28;20499;-53
2021/05/14 09:28:25;;;;;;;2.33;1.40;;;21.00;95.30;;;;;;5093658;28;20453;-52
2021/05/14 09:31:12;;;;;;;1.40;1.30;;;19.80;95.20;;;;;;5093695;28;20457;-53
2021/05/14 09:33:40;;;;;;;1.23;1.13;;;19.80;95.90;;;;;;5093660;28;21027;-53
2021/05/14 09:36:08;;;;;;;1.53;1.43;;;19.90;93.90;;;;;;5093500;28;20921;-53
2021/05/14 09:38:43;;;;;;;1.10;1.10;;;19.90;92.60;;;;;;5093518;28;20448;-52
2021/05/14 09:41:36;;;;;;;1.53;1.20;;;19.20;95.10;;;;;;5094437;28;20469;-52
2021/05/14 09:44:05;;;;;;;3.07;1.60;;;18.50;96.10;;;;;;5093527;28;20445;-50
2021/05/14 09:46:34;;;;;;;1.20;1.10;;;19.40;97.00;;;;;;5093148;28;20544;-50
2021/05/14 09:49:03;;;;;;;1.27;1.17;;;19.50;94.90;;;;;;5093245;28;20457;-50
2021/05/14 09:51:30;;;;;;;1.20;0.90;;;18.90;95.10;;;;;;5093169;28;20825;-50
2021/05/14 09:54:17;;;;;;;1.40;1.30;;;19.40;97.30;;;;;;5093166;28;21116;-49
2021/05/14 09:56:44;;;;;;;1.53;1.20;;;18.80;96.10;;;;;;5092934;28;20980;-50
2021/05/14 09:59:10;;;;;;;1.30;1.00;;;19.30;96.90;;;;;;5107195;28;20447;-50
2021/05/14 10:01:38;;;;;;;1.10;1.10;;;19.50;94.00;;;;;;5111278;28;20243;-50
2021/05/14 10:04:05;;;;;;;1.53;1.07;;;19.20;95.80;;;;;;5108450;28;20451;-49
2021/05/14 10:06:36;;;;;;;1.10;1.00;;;19.10;95.30;;;;;;5111882;28;20557;-50
2021/05/14 10:09:09;;;;;;;1.13;0.90;;;19.80;91.90;;;;;;5112766;28;20579;-50
2021/05/14 10:11:36;;;;;;;1.20;1.10;;;20.00;95.90;;;;;;5112968;28;20514;-50
2021/05/14 10:14:04;;;;;;;0.90;0.80;;;20.00;94.20;;;;;;5109515;28;20445;-50
2021/05/14 10:16:31;;;;;;;1.20;1.10;;;20.80;92.10;;;;;;5112724;28;21133;-50
2021/05/14 10:18:58;;;;;;;0.70;0.70;;;21.10;88.80;;;;;;5092583;28;20450;-51
2021/05/14 10:21:25;;;;;;;0.80;0.80;;;20.60;91.10;;;;;;5092335;28;20997;-50
2021/05/14 10:23:52;;;;;;;1.13;0.87;;;20.00;94.10;;;;;;5093361;28;20449;-50
2021/05/14 10:26:19;;;;;;;2.40;1.07;;;20.40;90.30;;;;;;5091809;28;20879;-50
2021/05/14 10:28:47;;;;;;;1.03;0.90;;;21.20;89.90;;;;;;5101193;28;20445;-51
2021/05/14 10:31:20;;;;;;;3.43;1.00;;;21.00;92.20;;;;;;5097765;28;20474;-49
2021/05/14 10:33:49;;;;;;;0.83;0.83;;;20.00;91.80;;;;;;5092109;28;20928;-50
2021/05/14 10:36:41;;;;;;;1.17;0.90;;;19.30;92.00;;;;;;5092047;28;20494;-49
2021/05/14 10:39:10;;;;;;;1.73;1.30;;;17.50;93.60;;;;;;5091939;28;20445;-50
2021/05/14 10:41:55;;;;;;;0.90;0.77;;;17.30;94.60;;;;;;5092156;28;20497;-49
2021/05/14 10:44:45;;;;;;;1.20;1.00;;;17.90;95.90;;;;;;5092190;28;20442;-50
2021/05/14 10:47:48;;;;;;;1.73;0.90;;;18.60;94.80;;;;;;5107441;28;20473;-49
2021/05/14 10:50:31;;;;;;;0.80;0.73;;;17.40;94.30;;;;;;5095386;28;20959;-49
2021/05/14 10:53:29;;;;;;;1.47;1.00;;;17.40;96.20;;;;;;5091827;28;20561;-49
2021/05/14 10:56:25;;;;;;;1.00;0.90;;;17.20;97.90;;;;;;5068139;28;20965;-49
2021/05/14 10:58:53;;;;;;;0.70;0.70;;;17.70;96.40;;;;;;5094737;28;20993;-49
2021/05/14 11:01:31;;;;;;;1.80;0.80;;;17.90;95.20;;;;;;5112183;28;20457;-50
2021/05/14 11:03:58;;;;;;;0.90;0.80;;;18.50;95.20;;;;;;5094268;28;20453;-49
2021/05/14 11:06:25;;;;;;;0.90;0.77;;;18.60;95.40;;;;;;5096491;28;20487;-49
2021/05/14 11:09:04;;;;;;;1.80;0.70;;;18.50;95.90;;;;;;5096951;28;20433;-50
2021/05/14 11:11:31;;;;;;;0.70;0.70;;;18.70;94.90;;;;;;5092723;28;20522;-49
2021/05/14 11:14:13;;;;;;;1.37;0.70;;;18.30;97.60;;;;;;5096511;28;20452;-50
2021/05/14 11:16:42;;;;;;;0.77;0.70;;;18.10;98.10;;;;;;5093425;28;20529;-49
2021/05/14 11:19:20;;;;;;;0.80;0.73;;;17.40;95.80;;;;;;5093712;28;20441;-49
2021/05/14 11:22:00;;;;;;;1.27;0.70;;;17.60;99.90;;;;;;5091747;28;20465;-50
2021/05/14 11:24:32;;;;;;;1.33;0.93;;;17.80;95.00;;;;;;5091378;28;20456;-49
2021/05/14 11:27:10;;;;;;;0.80;0.60;;;17.80;96.10;;;;;;5091186;28;20852;-49
2021/05/14 11:29:44;;;;;;;1.10;0.80;;;17.60;94.60;;;;;;5093833;28;21028;-49
2021/05/14 11:32:30;;;;;;;1.90;0.80;;;17.30;94.80;;;;;;5100798;28;21023;-50
2021/05/14 11:35:14;;;;;;;0.90;0.90;;;17.30;95.00;;;;;;5090654;28;20457;-49
2021/05/14 11:37:50;;;;;;;1.80;0.90;;;17.60;95.50;;;;;;5090893;28;20450;-50
2021/05/14 11:40:19;;;;;;;0.77;0.77;;;17.90;94.60;;;;;;5094788;28;20457;-49
2021/05/14 11:42:47;;;;;;;1.30;0.70;;;18.10;93.60;;;;;;5095253;28;20469;-50
2021/05/14 11:45:18;;;;;;;0.70;0.70;;;18.20;91.80;;;;;;5094260;28;20499;-50
2021/05/14 11:47:49;;;;;;;0.80;0.70;;;18.30;93.20;;;;;;5100415;28;20816;-50
2021/05/14 11:50:23;;;;;;;2.73;0.70;;;18.50;91.70;;;;;;5115643;28;20448;-51
2021/05/14 11:52:50;;;;;;;1.07;0.60;;;18.70;92.50;;;;;;5113998;28;20547;-51
2021/05/14 11:55:17;;;;;;;0.90;0.60;;;19.10;93.00;;;;;;5115554;28;20441;-50
2021/05/14 11:57:47;;;;;;;1.10;0.77;;;18.90;95.80;;;;;;5115106;28;20456;-50
2021/05/14 12:00:17;;;;;;;0.63;0.63;;;18.50;94.60;;;;;;5113068;28;20487;-51
2021/05/14 12:02:45;;;;;;;0.70;0.60;;;18.50;94.50;;;;;;5097037;28;21060;-51
2021/05/14 12:05:16;;;;;;;0.77;0.63;;;18.80;93.00;;;;;;5114867;28;20444;-51
2021/05/14 12:07:43;;;;;;;0.90;0.63;;;19.20;91.20;;;;;;5112557;27;20553;-50
2021/05/14 12:10:12;;;;;;;1.13;0.60;;;19.20;94.10;;;;;;5114918;28;20445;-50
2021/05/14 12:12:39;;;;;;;0.80;0.60;;;19.00;91.30;;;;;;5115265;28;20472;-50
2021/05/14 12:15:16;;;;;;;2.50;0.80;;;19.10;90.60;;;;;;5098777;27;20449;-50
2021/05/14 12:17:43;;;;;;;0.63;0.60;;;19.00;93.30;;;;;;5098649;28;20440;-50
2021/05/14 12:20:30;;;;;;;0.80;0.60;;;18.80;92.80;;;;;;5113385;28;20839;-51
2021/05/14 12:22:59;;;;;;;2.70;0.80;;;19.20;93.30;;;;;;5115076;28;20464;-51
2021/05/14 12:25:27;;;;;;;0.70;0.70;;;19.30;91.80;;;;;;5113788;28;20444;-51
2021/05/14 12:27:55;;;;;;;1.27;0.70;;;19.10;91.70;;;;;;5103753;28;20871;-51
2021/05/14 12:30:36;;;;;;;3.07;0.80;;;19.10;92.30;;;;;;5114947;28;20485;-50
2021/05/14 12:33:03;;;;;;;1.27;0.70;;;18.80;91.70;;;;;;5113689;28;20559;-51
2021/05/14 12:35:29;;;;;;;0.87;0.87;;;18.60;91.30;;;;;;5104200;28;20444;-50
2021/05/14 12:37:57;;;;;;;0.80;0.80;;;18.20;93.40;;;;;;5113546;28;20448;-51
2021/05/14 12:40:35;;;;;;;0.83;0.83;;;17.60;93.70;;;;;;5113428;28;20455;-50
2021/05/14 12:43:28;;;;;;;1.23;1.13;;;17.40;94.50;;;;;;5094348;28;20548;-50
2021/05/14 12:46:05;;;;;;;5.77;1.40;;;17.20;96.20;;;;;;5093793;28;20978;-50
2021/05/14 12:48:32;;;;;;;11.00;1.40;;;17.40;97.20;;;;;;5092860;28;20506;-50
2021/05/14 12:50:58;;;;;;;9.57;1.57;;;16.90;95.40;;;;;;5093965;28;20580;-50
2021/05/14 12:53:25;;;;;;;5.03;1.20;;;16.80;96.00;;;;;;5111994;28;20976;-51
2021/05/14 12:55:51;;;;;;;2.83;1.00;;;16.70;95.20;;;;;;5112263;28;20441;-50
2021/05/14 12:58:18;;;;;;;8.37;1.60;;;16.70;95.70;;;;;;5113148;28;20444;-50
2021/05/14 13:00:45;;;;;;;1.63;1.00;;;16.60;96.20;;;;;;5092636;28;20450;-51